sensor_id;sensor_type;location;lat;lon;timestamp;pressure;altitude;pressure_sealevel;temperature;humidity
46412;BME280;32113;42.012;24.870;2023-03-30T00:01:13;99649.13;;;7.72;32.93
46412;BME280;32113;42.012;24.870;2023-03-30T00:03:42;99653.44;;;7.79;32.22
46412;BME280;32113;42.012;24.870;2023-03-30T00:06:08;99659.31;;;7.70;32.58
46412;BME280;32113;42.012;24.870;2023-03-30T00:08:35;99658.06;;;7.35;32.68
46412;BME280;32113;42.012;24.870;2023-03-30T00:11:06;99659.59;;;7.22;33.78
46412;BME280;32113;42.012;24.870;2023-03-30T00:13:33;99652.81;;;7.25;33.39
46412;BME280;32113;42.012;24.870;2023-03-30T00:15:59;99649.50;;;7.32;33.35
46412;BME280;32113;42.012;24.870;2023-03-30T00:18:25;99653.00;;;7.42;32.61
46412;BME280;32113;42.012;24.870;2023-03-30T00:20:51;99653.09;;;7.46;33.45
46412;BME280;32113;42.012;24.870;2023-03-30T00:23:18;99663.31;;;7.48;33.19
46412;BME280;32113;42.012;24.870;2023-03-30T00:25:44;99650.28;;;7.26;33.43
46412;BME280;32113;42.012;24.870;2023-03-30T00:28:09;99655.91;;;7.02;33.77
46412;BME280;32113;42.012;24.870;2023-03-30T00:30:35;99651.72;;;7.05;34.31
46412;BME280;32113;42.012;24.870;2023-03-30T00:33:02;99649.75;;;6.86;33.79
46412;BME280;32113;42.012;24.870;2023-03-30T00:35:27;99645.41;;;6.80;34.59
46412;BME280;32113;42.012;24.870;2023-03-30T00:37:58;99653.13;;;6.86;34.42
46412;BME280;32113;42.012;24.870;2023-03-30T00:40:28;99651.63;;;7.01;34.09
46412;BME280;32113;42.012;24.870;2023-03-30T00:43:05;99652.56;;;7.04;34.03
46412;BME280;32113;42.012;24.870;2023-03-30T00:45:32;99657.75;;;7.10;34.26
46412;BME280;32113;42.012;24.870;2023-03-30T00:48:07;99651.41;;;6.83;34.07
46412;BME280;32113;42.012;24.870;2023-03-30T00:50:41;99645.03;;;6.56;35.39
46412;BME280;32113;42.012;24.870;2023-03-30T00:53:13;99647.56;;;6.53;35.50
46412;BME280;32113;42.012;24.870;2023-03-30T00:55:43;99649.38;;;6.61;35.33
46412;BME280;32113;42.012;24.870;2023-03-30T00:58:10;99645.31;;;6.74;35.18
46412;BME280;32113;42.012;24.870;2023-03-30T01:00:38;99642.78;;;6.75;34.67
46412;BME280;32113;42.012;24.870;2023-03-30T01:03:09;99647.63;;;6.58;35.33
46412;BME280;32113;42.012;24.870;2023-03-30T01:05:39;99639.00;;;6.48;35.31
46412;BME280;32113;42.012;24.870;2023-03-30T01:08:05;99643.84;;;6.34;35.88
46412;BME280;32113;42.012;24.870;2023-03-30T01:10:32;99646.84;;;6.10;35.99
46412;BME280;32113;42.012;24.870;2023-03-30T01:12:59;99646.50;;;5.92;36.58
46412;BME280;32113;42.012;24.870;2023-03-30T01:15:26;99642.13;;;5.85;36.34
46412;BME280;32113;42.012;24.870;2023-03-30T01:26:03;99647.06;;;6.22;36.25
46412;BME280;32113;42.012;24.870;2023-03-30T01:28:47;99640.47;;;6.34;35.44
46412;BME280;32113;42.012;24.870;2023-03-30T01:40:03;99639.78;;;6.44;34.75
46412;BME280;32113;42.012;24.870;2023-03-30T01:45:29;99642.06;;;6.28;35.85
46412;BME280;32113;42.012;24.870;2023-03-30T01:50:48;99650.19;;;6.07;35.52
46412;BME280;32113;42.012;24.870;2023-03-30T01:53:28;99654.88;;;5.85;35.89
46412;BME280;32113;42.012;24.870;2023-03-30T01:56:14;99645.66;;;5.92;36.07
46412;BME280;32113;42.012;24.870;2023-03-30T01:58:48;99649.75;;;5.84;36.67
46412;BME280;32113;42.012;24.870;2023-03-30T02:01:17;99638.94;;;5.96;36.00
46412;BME280;32113;42.012;24.870;2023-03-30T02:03:49;99646.47;;;5.89;36.28
46412;BME280;32113;42.012;24.870;2023-03-30T02:06:37;99640.50;;;5.89;35.88
46412;BME280;32113;42.012;24.870;2023-03-30T02:09:17;99639.47;;;5.79;36.36
46412;BME280;32113;42.012;24.870;2023-03-30T02:11:47;99647.16;;;5.82;36.76
46412;BME280;32113;42.012;24.870;2023-03-30T02:14:15;99649.81;;;5.88;36.34
46412;BME280;32113;42.012;24.870;2023-03-30T02:16:47;99648.75;;;5.75;36.92
46412;BME280;32113;42.012;24.870;2023-03-30T02:19:13;99646.97;;;5.71;36.96
46412;BME280;32113;42.012;24.870;2023-03-30T02:21:40;99649.50;;;5.71;36.96
46412;BME280;32113;42.012;24.870;2023-03-30T02:24:11;99659.84;;;5.79;37.02
46412;BME280;32113;42.012;24.870;2023-03-30T02:26:46;99656.53;;;5.83;37.11
46412;BME280;32113;42.012;24.870;2023-03-30T02:29:14;99652.09;;;5.73;37.20
46412;BME280;32113;42.012;24.870;2023-03-30T02:31:41;99650.91;;;5.55;37.02
46412;BME280;32113;42.012;24.870;2023-03-30T02:37:30;99661.38;;;5.69;37.59
46412;BME280;32113;42.012;24.870;2023-03-30T02:54:04;99675.84;;;5.72;37.47
46412;BME280;32113;42.012;24.870;2023-03-30T02:56:44;99671.78;;;5.83;37.80
46412;BME280;32113;42.012;24.870;2023-03-30T02:59:27;99675.28;;;5.87;37.04
46412;BME280;32113;42.012;24.870;2023-03-30T03:01:58;99678.31;;;5.69;37.42
46412;BME280;32113;42.012;24.870;2023-03-30T03:04:28;99687.66;;;5.68;37.16
46412;BME280;32113;42.012;24.870;2023-03-30T03:06:58;99680.00;;;5.67;37.65
46412;BME280;32113;42.012;24.870;2023-03-30T03:09:27;99682.63;;;5.30;38.07
46412;BME280;32113;42.012;24.870;2023-03-30T03:11:53;99685.94;;;5.25;38.32
46412;BME280;32113;42.012;24.870;2023-03-30T03:14:19;99685.03;;;5.23;38.55
46412;BME280;32113;42.012;24.870;2023-03-30T03:16:45;99680.81;;;5.24;38.41
46412;BME280;32113;42.012;24.870;2023-03-30T03:19:10;99683.22;;;5.18;38.56
46412;BME280;32113;42.012;24.870;2023-03-30T03:21:36;99685.75;;;5.16;39.02
46412;BME280;32113;42.012;24.870;2023-03-30T03:24:02;99686.38;;;5.07;38.76
46412;BME280;32113;42.012;24.870;2023-03-30T03:26:28;99691.69;;;5.17;39.01
46412;BME280;32113;42.012;24.870;2023-03-30T03:28:54;99691.72;;;5.18;38.62
46412;BME280;32113;42.012;24.870;2023-03-30T03:31:19;99690.75;;;5.13;38.90
46412;BME280;32113;42.012;24.870;2023-03-30T03:33:46;99689.63;;;5.02;39.31
46412;BME280;32113;42.012;24.870;2023-03-30T03:36:11;99692.97;;;4.99;39.33
46412;BME280;32113;42.012;24.870;2023-03-30T03:38:37;99691.09;;;4.90;39.85
46412;BME280;32113;42.012;24.870;2023-03-30T03:41:03;99695.59;;;5.02;39.44
46412;BME280;32113;42.012;24.870;2023-03-30T03:43:29;99700.69;;;5.02;39.78
46412;BME280;32113;42.012;24.870;2023-03-30T03:45:55;99705.31;;;5.19;39.72
46412;BME280;32113;42.012;24.870;2023-03-30T03:48:22;99706.72;;;5.07;39.81
46412;BME280;32113;42.012;24.870;2023-03-30T03:50:54;99710.41;;;5.20;39.31
46412;BME280;32113;42.012;24.870;2023-03-30T03:53:21;99722.63;;;5.35;39.29
46412;BME280;32113;42.012;24.870;2023-03-30T03:55:47;99711.94;;;5.52;39.21
46412;BME280;32113;42.012;24.870;2023-03-30T03:58:13;99719.81;;;5.63;38.59
46412;BME280;32113;42.012;24.870;2023-03-30T04:00:39;99721.84;;;5.81;38.78
46412;BME280;32113;42.012;24.870;2023-03-30T04:03:05;99712.69;;;5.91;38.58
46412;BME280;32113;42.012;24.870;2023-03-30T04:05:31;99722.06;;;5.92;38.29
46412;BME280;32113;42.012;24.870;2023-03-30T04:07:57;99731.97;;;5.78;38.49
46412;BME280;32113;42.012;24.870;2023-03-30T04:10:23;99737.47;;;5.57;39.04
46412;BME280;32113;42.012;24.870;2023-03-30T04:12:48;99735.34;;;5.35;39.29
46412;BME280;32113;42.012;24.870;2023-03-30T04:15:14;99732.38;;;5.17;40.29
46412;BME280;32113;42.012;24.870;2023-03-30T04:17:40;99739.19;;;5.16;40.22
46412;BME280;32113;42.012;24.870;2023-03-30T04:20:07;99737.38;;;5.12;40.29
46412;BME280;32113;42.012;24.870;2023-03-30T04:22:35;99742.16;;;4.99;40.92
46412;BME280;32113;42.012;24.870;2023-03-30T04:25:01;99740.28;;;4.91;40.92
46412;BME280;32113;42.012;24.870;2023-03-30T04:27:31;99742.94;;;4.60;41.80
46412;BME280;32113;42.012;24.870;2023-03-30T04:29:57;99738.47;;;4.51;42.05
46412;BME280;32113;42.012;24.870;2023-03-30T04:32:25;99738.13;;;4.37;42.66
46412;BME280;32113;42.012;24.870;2023-03-30T04:34:50;99751.59;;;4.34;42.93
46412;BME280;32113;42.012;24.870;2023-03-30T04:37:21;99756.41;;;4.24;43.42
46412;BME280;32113;42.012;24.870;2023-03-30T04:39:58;99763.09;;;4.21;43.46
46412;BME280;32113;42.012;24.870;2023-03-30T04:42:28;99760.56;;;4.21;43.35
46412;BME280;32113;42.012;24.870;2023-03-30T04:45:05;99761.81;;;4.38;43.07
46412;BME280;32113;42.012;24.870;2023-03-30T04:47:31;99762.38;;;4.26;43.56
46412;BME280;32113;42.012;24.870;2023-03-30T04:49:57;99767.13;;;4.13;43.99
46412;BME280;32113;42.012;24.870;2023-03-30T04:52:22;99769.81;;;4.19;43.96
46412;BME280;32113;42.012;24.870;2023-03-30T04:54:48;99774.66;;;4.10;44.22
46412;BME280;32113;42.012;24.870;2023-03-30T04:57:14;99778.13;;;4.14;44.19
46412;BME280;32113;42.012;24.870;2023-03-30T04:59:41;99780.81;;;4.18;44.38
46412;BME280;32113;42.012;24.870;2023-03-30T05:02:07;99773.34;;;4.25;44.31
46412;BME280;32113;42.012;24.870;2023-03-30T05:04:33;99781.81;;;4.24;44.16
46412;BME280;32113;42.012;24.870;2023-03-30T05:06:59;99784.44;;;4.27;43.97
46412;BME280;32113;42.012;24.870;2023-03-30T05:09:25;99783.31;;;4.49;43.71
46412;BME280;32113;42.012;24.870;2023-03-30T05:11:50;99787.47;;;4.45;43.73
46412;BME280;32113;42.012;24.870;2023-03-30T05:14:16;99786.09;;;4.58;43.51
46412;BME280;32113;42.012;24.870;2023-03-30T05:16:41;99790.13;;;4.50;43.39
46412;BME280;32113;42.012;24.870;2023-03-30T05:19:07;99790.16;;;4.52;43.75
46412;BME280;32113;42.012;24.870;2023-03-30T05:21:32;99791.53;;;4.72;43.22
46412;BME280;32113;42.012;24.870;2023-03-30T05:23:58;99787.72;;;4.90;43.20
46412;BME280;32113;42.012;24.870;2023-03-30T05:26:24;99784.66;;;5.04;42.75
46412;BME280;32113;42.012;24.870;2023-03-30T05:28:50;99783.91;;;5.08;42.56
46412;BME280;32113;42.012;24.870;2023-03-30T05:31:16;99787.50;;;5.16;42.18
46412;BME280;32113;42.012;24.870;2023-03-30T05:33:42;99784.13;;;5.17;42.68
46412;BME280;32113;42.012;24.870;2023-03-30T05:36:08;99798.78;;;5.28;42.18
46412;BME280;32113;42.012;24.870;2023-03-30T05:38:33;99795.63;;;5.38;41.86
46412;BME280;32113;42.012;24.870;2023-03-30T05:41:00;99794.66;;;5.33;42.09
46412;BME280;32113;42.012;24.870;2023-03-30T05:43:26;99791.50;;;5.43;41.95
46412;BME280;32113;42.012;24.870;2023-03-30T05:45:51;99791.84;;;5.59;42.19
46412;BME280;32113;42.012;24.870;2023-03-30T05:48:17;99786.97;;;5.70;41.46
46412;BME280;32113;42.012;24.870;2023-03-30T05:50:42;99786.97;;;5.70;41.66
46412;BME280;32113;42.012;24.870;2023-03-30T05:53:08;99787.41;;;5.90;41.31
46412;BME280;32113;42.012;24.870;2023-03-30T05:55:34;99790.31;;;6.07;40.92
46412;BME280;32113;42.012;24.870;2023-03-30T05:57:59;99796.47;;;6.17;41.12
46412;BME280;32113;42.012;24.870;2023-03-30T06:00:25;99781.13;;;6.15;40.80
46412;BME280;32113;42.012;24.870;2023-03-30T06:02:50;99783.81;;;6.23;40.35
46412;BME280;32113;42.012;24.870;2023-03-30T06:05:17;99782.31;;;6.33;39.90
46412;BME280;32113;42.012;24.870;2023-03-30T06:07:42;99775.84;;;6.52;39.76
46412;BME280;32113;42.012;24.870;2023-03-30T06:10:10;99786.47;;;6.76;39.58
46412;BME280;32113;42.012;24.870;2023-03-30T06:12:37;99787.72;;;7.00;38.86
46412;BME280;32113;42.012;24.870;2023-03-30T06:15:03;99786.44;;;7.27;37.83
46412;BME280;32113;42.012;24.870;2023-03-30T06:17:29;99791.84;;;7.50;37.30
46412;BME280;32113;42.012;24.870;2023-03-30T06:19:54;99793.06;;;7.77;35.66
46412;BME280;32113;42.012;24.870;2023-03-30T06:22:20;99799.19;;;7.90;35.30
46412;BME280;32113;42.012;24.870;2023-03-30T06:24:46;99795.16;;;8.08;35.14
46412;BME280;32113;42.012;24.870;2023-03-30T06:27:12;99805.63;;;8.31;34.16
46412;BME280;32113;42.012;24.870;2023-03-30T06:29:37;99789.63;;;8.48;33.69
46412;BME280;32113;42.012;24.870;2023-03-30T06:32:03;99789.78;;;8.59;34.02
46412;BME280;32113;42.012;24.870;2023-03-30T06:34:29;99804.41;;;8.74;33.86
46412;BME280;32113;42.012;24.870;2023-03-30T06:36:55;99801.91;;;8.80;33.65
46412;BME280;32113;42.012;24.870;2023-03-30T06:39:20;99797.69;;;8.90;33.50
46412;BME280;32113;42.012;24.870;2023-03-30T06:41:46;99803.78;;;9.01;33.60
46412;BME280;32113;42.012;24.870;2023-03-30T06:44:11;99806.47;;;9.17;33.41
46412;BME280;32113;42.012;24.870;2023-03-30T06:46:39;99805.63;;;9.16;33.17
46412;BME280;32113;42.012;24.870;2023-03-30T06:49:05;99808.22;;;9.27;32.74
46412;BME280;32113;42.012;24.870;2023-03-30T06:51:30;99818.50;;;9.29;33.20
46412;BME280;32113;42.012;24.870;2023-03-30T06:53:56;99804.03;;;9.36;32.75
46412;BME280;32113;42.012;24.870;2023-03-30T06:56:21;99810.03;;;9.41;33.42
46412;BME280;32113;42.012;24.870;2023-03-30T06:58:47;99808.41;;;9.51;33.46
46412;BME280;32113;42.012;24.870;2023-03-30T07:01:14;99816.16;;;9.60;33.05
46412;BME280;32113;42.012;24.870;2023-03-30T07:03:40;99816.09;;;9.54;33.00
46412;BME280;32113;42.012;24.870;2023-03-30T07:06:06;99819.50;;;9.51;32.94
46412;BME280;32113;42.012;24.870;2023-03-30T07:08:32;99812.69;;;9.52;33.26
46412;BME280;32113;42.012;24.870;2023-03-30T07:10:58;99801.59;;;9.56;33.22
46412;BME280;32113;42.012;24.870;2023-03-30T07:13:23;99805.06;;;9.67;33.68
46412;BME280;32113;42.012;24.870;2023-03-30T07:15:49;99810.25;;;9.77;33.52
46412;BME280;32113;42.012;24.870;2023-03-30T07:18:16;99811.13;;;9.79;33.40
46412;BME280;32113;42.012;24.870;2023-03-30T07:20:43;99798.31;;;9.82;34.06
46412;BME280;32113;42.012;24.870;2023-03-30T07:23:08;99797.47;;;9.80;33.94
46412;BME280;32113;42.012;24.870;2023-03-30T07:25:36;99802.59;;;9.83;34.58
46412;BME280;32113;42.012;24.870;2023-03-30T07:28:03;99808.59;;;9.91;34.43
46412;BME280;32113;42.012;24.870;2023-03-30T07:30:31;99798.41;;;9.97;34.27
46412;BME280;32113;42.012;24.870;2023-03-30T07:32:56;99799.25;;;10.01;34.57
46412;BME280;32113;42.012;24.870;2023-03-30T07:35:22;99802.66;;;10.03;34.68
46412;BME280;32113;42.012;24.870;2023-03-30T07:37:48;99804.41;;;10.09;34.43
46412;BME280;32113;42.012;24.870;2023-03-30T07:40:13;99799.31;;;10.17;34.60
46412;BME280;32113;42.012;24.870;2023-03-30T07:42:39;99789.94;;;10.27;34.97
46412;BME280;32113;42.012;24.870;2023-03-30T07:45:05;99793.38;;;10.35;34.54
46412;BME280;32113;42.012;24.870;2023-03-30T07:47:31;99787.47;;;10.48;34.36
46412;BME280;32113;42.012;24.870;2023-03-30T07:49:56;99796.03;;;10.55;34.36
46412;BME280;32113;42.012;24.870;2023-03-30T07:52:22;99798.59;;;10.69;34.11
46412;BME280;32113;42.012;24.870;2023-03-30T07:54:47;99794.31;;;10.71;34.58
46412;BME280;32113;42.012;24.870;2023-03-30T07:57:12;99795.19;;;10.75;34.71
46412;BME280;32113;42.012;24.870;2023-03-30T07:59:38;99787.50;;;10.83;34.67
46412;BME280;32113;42.012;24.870;2023-03-30T08:02:04;99779.81;;;10.92;34.68
46412;BME280;32113;42.012;24.870;2023-03-30T08:04:31;99784.94;;;11.00;34.64
46412;BME280;32113;42.012;24.870;2023-03-30T08:06:56;99778.94;;;11.07;34.73
46412;BME280;32113;42.012;24.870;2023-03-30T08:09:22;99770.38;;;11.05;34.85
46412;BME280;32113;42.012;24.870;2023-03-30T08:11:47;99766.97;;;10.89;35.48
46412;BME280;32113;42.012;24.870;2023-03-30T08:14:12;99778.09;;;10.89;35.89
46412;BME280;32113;42.012;24.870;2023-03-30T08:16:38;99778.06;;;11.02;36.12
46412;BME280;32113;42.012;24.870;2023-03-30T08:19:04;99780.63;;;11.16;35.68
46412;BME280;32113;42.012;24.870;2023-03-30T08:21:29;99773.78;;;11.24;35.04
46412;BME280;32113;42.012;24.870;2023-03-30T08:23:55;99771.19;;;11.29;35.53
46412;BME280;32113;42.012;24.870;2023-03-30T08:26:23;99767.75;;;11.46;35.55
46412;BME280;32113;42.012;24.870;2023-03-30T08:28:49;99766.88;;;11.57;35.20
46412;BME280;32113;42.012;24.870;2023-03-30T08:31:14;99764.22;;;11.78;34.96
46412;BME280;32113;42.012;24.870;2023-03-30T08:33:43;99759.84;;;12.02;34.58
46412;BME280;32113;42.012;24.870;2023-03-30T08:36:09;99757.22;;;12.16;34.60
46412;BME280;32113;42.012;24.870;2023-03-30T08:38:35;99755.47;;;12.26;33.97
46412;BME280;32113;42.012;24.870;2023-03-30T08:41:01;99749.38;;;12.39;33.79
46412;BME280;32113;42.012;24.870;2023-03-30T08:46:33;99747.13;;;13.05;33.25
46412;BME280;32113;42.012;24.870;2023-03-30T08:49:02;99738.34;;;13.23;32.13
46412;BME280;32113;42.012;24.870;2023-03-30T08:51:32;99729.50;;;13.46;32.04
46412;BME280;32113;42.012;24.870;2023-03-30T08:54:04;99732.88;;;13.58;31.62
46412;BME280;32113;42.012;24.870;2023-03-30T08:56:33;99718.00;;;13.78;31.95
46412;BME280;32113;42.012;24.870;2023-03-30T09:01:53;99717.25;;;14.31;30.79
46412;BME280;32113;42.012;24.870;2023-03-30T09:07:15;99706.41;;;14.67;30.52
46412;BME280;32113;42.012;24.870;2023-03-30T09:09:43;99706.88;;;14.91;30.10
46412;BME280;32113;42.012;24.870;2023-03-30T09:14:48;99703.19;;;15.49;28.93
46412;BME280;32113;42.012;24.870;2023-03-30T09:17:18;99694.25;;;15.66;28.49
46412;BME280;32113;42.012;24.870;2023-03-30T09:19:56;99689.66;;;15.79;28.38
46412;BME280;32113;42.012;24.870;2023-03-30T09:22:34;99689.25;;;15.99;28.40
46412;BME280;32113;42.012;24.870;2023-03-30T09:25:04;99681.06;;;16.18;28.00
46412;BME280;32113;42.012;24.870;2023-03-30T09:27:33;99686.19;;;16.21;27.97
46412;BME280;32113;42.012;24.870;2023-03-30T09:30:15;99675.47;;;16.35;27.33
46412;BME280;32113;42.012;24.870;2023-03-30T09:32:48;99673.22;;;16.57;27.87
46412;BME280;32113;42.012;24.870;2023-03-30T09:35:18;99678.19;;;16.65;28.10
46412;BME280;32113;42.012;24.870;2023-03-30T09:37:45;99676.50;;;16.64;28.29
46412;BME280;32113;42.012;24.870;2023-03-30T09:40:26;99673.63;;;16.75;26.79
46412;BME280;32113;42.012;24.870;2023-03-30T09:43:15;99668.00;;;16.92;26.74
46412;BME280;32113;42.012;24.870;2023-03-30T09:45:44;99661.84;;;16.96;25.91
46412;BME280;32113;42.012;24.870;2023-03-30T09:48:10;99668.38;;;16.78;25.52
46412;BME280;32113;42.012;24.870;2023-03-30T09:50:40;99655.19;;;16.87;24.77
46412;BME280;32113;42.012;24.870;2023-03-30T09:53:36;99648.78;;;17.01;23.84
46412;BME280;32113;42.012;24.870;2023-03-30T09:56:09;99649.22;;;17.17;24.00
46412;BME280;32113;42.012;24.870;2023-03-30T09:58:36;99634.06;;;17.33;24.14
46412;BME280;32113;42.012;24.870;2023-03-30T10:01:18;99639.06;;;17.41;24.70
46412;BME280;32113;42.012;24.870;2023-03-30T10:04:19;99630.09;;;17.51;24.05
46412;BME280;32113;42.012;24.870;2023-03-30T10:06:47;99636.06;;;17.25;23.41
46412;BME280;32113;42.012;24.870;2023-03-30T10:09:14;99628.69;;;17.41;23.15
46412;BME280;32113;42.012;24.870;2023-03-30T10:11:44;99621.69;;;17.43;22.41
46412;BME280;32113;42.012;24.870;2023-03-30T10:14:22;99616.81;;;17.62;23.22
46412;BME280;32113;42.012;24.870;2023-03-30T10:16:51;99615.97;;;17.60;23.92
46412;BME280;32113;42.012;24.870;2023-03-30T10:19:21;99615.41;;;17.79;25.34
46412;BME280;32113;42.012;24.870;2023-03-30T10:21:52;99605.78;;;17.82;24.92
46412;BME280;32113;42.012;24.870;2023-03-30T10:24:24;99600.94;;;17.98;24.41
46412;BME280;32113;42.012;24.870;2023-03-30T10:27:11;99598.91;;;18.10;23.27
46412;BME280;32113;42.012;24.870;2023-03-30T10:29:37;99603.16;;;18.12;23.06
46412;BME280;32113;42.012;24.870;2023-03-30T10:32:13;99591.44;;;17.99;22.98
46412;BME280;32113;42.012;24.870;2023-03-30T10:34:58;99597.13;;;18.10;23.39
46412;BME280;32113;42.012;24.870;2023-03-30T10:37:34;99602.97;;;18.17;23.31
46412;BME280;32113;42.012;24.870;2023-03-30T10:40:10;99585.25;;;18.30;22.61
46412;BME280;32113;42.012;24.870;2023-03-30T10:42:39;99584.31;;;18.33;22.76
46412;BME280;32113;42.012;24.870;2023-03-30T10:45:05;99593.16;;;18.52;22.56
46412;BME280;32113;42.012;24.870;2023-03-30T10:51:04;99584.88;;;18.67;22.45
46412;BME280;32113;42.012;24.870;2023-03-30T10:53:28;99580.84;;;18.58;22.83
46412;BME280;32113;42.012;24.870;2023-03-30T10:56:11;99573.63;;;18.66;22.84
46412;BME280;32113;42.012;24.870;2023-03-30T11:01:40;99562.75;;;18.55;22.91
46412;BME280;32113;42.012;24.870;2023-03-30T11:04:17;99563.97;;;18.70;23.76
46412;BME280;32113;42.012;24.870;2023-03-30T11:06:44;99551.13;;;18.65;23.50
46412;BME280;32113;42.012;24.870;2023-03-30T11:09:14;99554.69;;;18.62;24.44
46412;BME280;32113;42.012;24.870;2023-03-30T11:11:52;99541.94;;;18.56;23.84
46412;BME280;32113;42.012;24.870;2023-03-30T11:14:31;99540.25;;;18.55;24.05
46412;BME280;32113;42.012;24.870;2023-03-30T11:17:06;99537.09;;;18.45;23.71
46412;BME280;32113;42.012;24.870;2023-03-30T11:19:48;99533.41;;;18.52;24.65
46412;BME280;32113;42.012;24.870;2023-03-30T11:24:44;99521.38;;;18.50;25.02
46412;BME280;32113;42.012;24.870;2023-03-30T11:29:52;99515.31;;;18.49;25.69
46412;BME280;32113;42.012;24.870;2023-03-30T11:38:03;99500.31;;;18.82;25.16
46412;BME280;32113;42.012;24.870;2023-03-30T11:40:41;99493.78;;;18.94;24.93
46412;BME280;32113;42.012;24.870;2023-03-30T11:43:10;99486.22;;;19.11;25.05
46412;BME280;32113;42.012;24.870;2023-03-30T11:51:19;99475.59;;;18.94;24.01
46412;BME280;32113;42.012;24.870;2023-03-30T11:59:01;99479.88;;;18.95;25.14
46412;BME280;32113;42.012;24.870;2023-03-30T12:01:40;99465.19;;;18.94;25.16
46412;BME280;32113;42.012;24.870;2023-03-30T12:04:13;99462.22;;;19.03;24.89
46412;BME280;32113;42.012;24.870;2023-03-30T12:06:41;99463.78;;;19.09;24.71
46412;BME280;32113;42.012;24.870;2023-03-30T12:14:02;99449.69;;;19.14;25.53
46412;BME280;32113;42.012;24.870;2023-03-30T12:16:36;99453.09;;;19.16;24.88
46412;BME280;32113;42.012;24.870;2023-03-30T12:22:24;99443.75;;;19.11;24.79
46412;BME280;32113;42.012;24.870;2023-03-30T12:24:48;99438.13;;;18.99;24.97
46412;BME280;32113;42.012;24.870;2023-03-30T12:27:17;99433.69;;;19.01;24.75
46412;BME280;32113;42.012;24.870;2023-03-30T12:29:47;99432.78;;;18.80;24.12
46412;BME280;32113;42.012;24.870;2023-03-30T12:32:26;99430.53;;;18.71;24.40
46412;BME280;32113;42.012;24.870;2023-03-30T12:34:52;99426.78;;;18.78;24.42
46412;BME280;32113;42.012;24.870;2023-03-30T12:37:20;99424.19;;;18.78;24.18
46412;BME280;32113;42.012;24.870;2023-03-30T12:39:47;99427.31;;;18.86;24.32
46412;BME280;32113;42.012;24.870;2023-03-30T12:42:21;99428.53;;;18.77;24.74
46412;BME280;32113;42.012;24.870;2023-03-30T12:53:32;99409.41;;;18.56;23.79
46412;BME280;32113;42.012;24.870;2023-03-30T12:56:12;99413.97;;;18.73;23.81
46412;BME280;32113;42.012;24.870;2023-03-30T12:59:06;99407.75;;;18.77;22.71
46412;BME280;32113;42.012;24.870;2023-03-30T13:04:20;99392.84;;;19.05;22.42
46412;BME280;32113;42.012;24.870;2023-03-30T13:06:57;99389.09;;;19.12;23.05
46412;BME280;32113;42.012;24.870;2023-03-30T13:29:39;99357.44;;;18.56;22.37
46412;BME280;32113;42.012;24.870;2023-03-30T13:37:49;99347.00;;;18.35;22.90
46412;BME280;32113;42.012;24.870;2023-03-30T13:40:24;99353.63;;;18.43;23.11
46412;BME280;32113;42.012;24.870;2023-03-30T13:43:06;99352.91;;;18.39;22.67
46412;BME280;32113;42.012;24.870;2023-03-30T13:51:22;99340.56;;;18.22;23.91
46412;BME280;32113;42.012;24.870;2023-03-30T13:54:13;99341.16;;;18.05;23.89
46412;BME280;32113;42.012;24.870;2023-03-30T13:56:46;99333.19;;;17.85;24.45
46412;BME280;32113;42.012;24.870;2023-03-30T13:59:15;99323.06;;;17.78;24.23
46412;BME280;32113;42.012;24.870;2023-03-30T14:01:45;99326.53;;;17.53;24.77
46412;BME280;32113;42.012;24.870;2023-03-30T14:04:13;99320.22;;;17.34;25.19
46412;BME280;32113;42.012;24.870;2023-03-30T14:06:42;99314.72;;;17.44;25.24
46412;BME280;32113;42.012;24.870;2023-03-30T14:09:19;99312.19;;;17.42;25.05
46412;BME280;32113;42.012;24.870;2023-03-30T14:11:57;99302.53;;;17.48;24.73
46412;BME280;32113;42.012;24.870;2023-03-30T14:14:42;99305.78;;;17.53;25.65
46412;BME280;32113;42.012;24.870;2023-03-30T14:17:14;99300.38;;;17.59;25.31
46412;BME280;32113;42.012;24.870;2023-03-30T14:20:04;99301.38;;;17.55;25.55
46412;BME280;32113;42.012;24.870;2023-03-30T14:22:36;99293.94;;;17.45;25.36
46412;BME280;32113;42.012;24.870;2023-03-30T14:25:17;99294.56;;;17.52;25.52
46412;BME280;32113;42.012;24.870;2023-03-30T14:27:44;99287.88;;;17.45;25.30
46412;BME280;32113;42.012;24.870;2023-03-30T14:30:18;99284.97;;;17.54;25.55
46412;BME280;32113;42.012;24.870;2023-03-30T14:32:43;99288.59;;;17.50;25.50
46412;BME280;32113;42.012;24.870;2023-03-30T14:35:15;99282.28;;;17.06;25.54
46412;BME280;32113;42.012;24.870;2023-03-30T14:37:42;99290.78;;;16.83;26.41
46412;BME280;32113;42.012;24.870;2023-03-30T14:40:13;99279.25;;;16.65;26.88
46412;BME280;32113;42.012;24.870;2023-03-30T14:42:41;99276.06;;;16.57;27.19
46412;BME280;32113;42.012;24.870;2023-03-30T14:45:07;99271.00;;;16.80;26.79
46412;BME280;32113;42.012;24.870;2023-03-30T14:47:34;99263.66;;;16.66;27.32
46412;BME280;32113;42.012;24.870;2023-03-30T14:50:04;99269.44;;;16.75;27.18
46412;BME280;32113;42.012;24.870;2023-03-30T14:52:38;99269.66;;;16.68;27.40
46412;BME280;32113;42.012;24.870;2023-03-30T14:55:04;99270.97;;;16.53;27.60
46412;BME280;32113;42.012;24.870;2023-03-30T14:57:31;99267.03;;;16.41;27.97
46412;BME280;32113;42.012;24.870;2023-03-30T15:00:01;99262.50;;;16.48;28.01
46412;BME280;32113;42.012;24.870;2023-03-30T15:02:37;99265.19;;;16.45;27.68
46412;BME280;32113;42.012;24.870;2023-03-30T15:05:07;99267.50;;;16.54;27.62
46412;BME280;32113;42.012;24.870;2023-03-30T15:07:32;99269.63;;;16.41;27.72
46412;BME280;32113;42.012;24.870;2023-03-30T15:09:59;99266.66;;;16.54;27.72
46412;BME280;32113;42.012;24.870;2023-03-30T15:12:28;99261.97;;;16.65;27.78
46412;BME280;32113;42.012;24.870;2023-03-30T15:14:58;99265.06;;;16.77;27.63
46412;BME280;32113;42.012;24.870;2023-03-30T15:17:26;99275.63;;;16.71;27.59